Loray, North Carolina
Current Conditions -  °F | °C
As of 11:15 PM on Wednesday 26 Nov 2014 (Local Time) from KRUQ Reporting Station
Broken Clouds Broken Clouds  
Wind Chill: 42°   Ceiling: 2400
Heat Index: 42°   Visibility: 10mi
Dew Point: 40°   Wind: 3mph
Humidity: 95%   Direction: 20°NNE
Pressure: 30.03"   Gusts: NA
Location:  35.8306°N, 80.9003°W
Report Text: KRUQ 270415Z AUTO 02003KT 10SM SCT016 BKN024 BKN095 05/05 A3003 RMK AO2 T00540046
Loading
Personal Weather Stations






























Interactive Weather Map New forecast layout! Learn more

10-Day Weather Forecast

Advertisements
Track Severe Weather on mobile